createdAt,value
2017-06-23T00:01:13.000Z,19.40
2017-06-23T00:03:41.391Z,19.40
2017-06-23T00:06:09.697Z,19.40
2017-06-23T00:08:38.115Z,19.50
2017-06-23T00:11:06.416Z,19.40
2017-06-23T00:13:34.719Z,19.50
2017-06-23T00:16:03.783Z,19.40
2017-06-23T00:18:32.077Z,19.40
2017-06-23T00:21:01.139Z,19.40
2017-06-23T00:23:29.522Z,19.40
2017-06-23T00:25:57.827Z,19.40
2017-06-23T00:28:26.125Z,19.40
2017-06-23T00:31:03.207Z,19.40
2017-06-23T00:33:32.814Z,19.40
2017-06-23T00:36:01.124Z,19.40
2017-06-23T00:38:29.412Z,19.40
2017-06-23T00:40:58.472Z,19.40
2017-06-23T00:43:26.779Z,19.40
2017-06-23T00:45:55.072Z,19.40
2017-06-23T00:48:23.407Z,19.40
2017-06-23T00:50:51.759Z,19.40
2017-06-23T00:53:20.063Z,19.40
2017-06-23T00:55:48.569Z,19.30
2017-06-23T00:58:16.851Z,19.40
2017-06-23T01:00:45.143Z,19.40
2017-06-23T01:03:13.457Z,19.40
2017-06-23T01:05:41.837Z,19.40
2017-06-23T01:08:10.900Z,19.50
2017-06-23T01:10:39.198Z,19.40
2017-06-23T01:13:07.509Z,19.40
2017-06-23T01:15:35.800Z,19.30
2017-06-23T01:18:04.202Z,19.30
2017-06-23T01:20:32.507Z,19.30
2017-06-23T01:23:01.563Z,19.30
2017-06-23T01:25:29.867Z,19.30
2017-06-23T01:27:58.166Z,19.30
2017-06-23T01:30:26.461Z,19.20
2017-06-23T01:32:54.792Z,19.20
2017-06-23T01:35:23.123Z,19.10
2017-06-23T01:37:52.164Z,19.00
2017-06-23T01:40:20.474Z,19.00
2017-06-23T01:42:48.889Z,19.00
2017-06-23T01:45:17.201Z,19.00
2017-06-23T01:47:45.492Z,19.00
2017-06-23T01:50:13.887Z,19.00
2017-06-23T01:52:42.401Z,19.10
2017-06-23T01:55:10.689Z,19.00
2017-06-23T01:57:38.994Z,19.00
2017-06-23T02:00:07.376Z,19.00
2017-06-23T02:02:35.731Z,19.10
2017-06-23T02:05:04.066Z,19.10
2017-06-23T02:07:33.151Z,19.00
2017-06-23T02:10:02.218Z,19.00
2017-06-23T02:12:30.525Z,19.00
2017-06-23T02:14:58.807Z,19.00
2017-06-23T02:17:27.155Z,19.00
2017-06-23T02:19:55.475Z,19.00
2017-06-23T02:22:23.995Z,19.00
2017-06-23T02:24:52.319Z,19.00
2017-06-23T02:27:21.405Z,19.00
2017-06-23T02:29:50.457Z,19.00
2017-06-23T02:32:18.744Z,19.00
2017-06-23T02:34:47.860Z,19.00
2017-06-23T02:37:16.183Z,19.00
2017-06-23T02:39:44.622Z,19.00
2017-06-23T02:42:12.922Z,19.00
2017-06-23T02:44:41.247Z,19.00
2017-06-23T02:47:09.539Z,19.00
2017-06-23T02:49:38.613Z,19.00
2017-06-23T02:52:06.955Z,19.00
2017-06-23T02:54:35.265Z,19.00
2017-06-23T02:57:03.557Z,19.00
2017-06-23T02:59:31.844Z,19.00
2017-06-23T03:02:00.159Z,18.90
2017-06-23T03:04:28.867Z,18.90
2017-06-23T03:06:57.164Z,18.90
2017-06-23T03:09:26.233Z,18.90
2017-06-23T03:11:55.515Z,18.90
2017-06-23T03:14:23.803Z,18.90
2017-06-23T03:16:52.996Z,18.90
2017-06-23T03:19:22.033Z,19.00
2017-06-23T03:21:50.327Z,19.00
2017-06-23T03:24:18.654Z,19.00
2017-06-23T03:26:46.977Z,19.00
2017-06-23T03:29:15.271Z,18.90
2017-06-23T03:31:43.776Z,19.00
2017-06-23T03:34:12.086Z,19.00
2017-06-23T03:36:40.367Z,19.00
2017-06-23T03:39:08.672Z,19.00
2017-06-23T03:41:37.004Z,19.00
2017-06-23T03:44:05.410Z,19.00
2017-06-23T03:46:33.695Z,19.00
2017-06-23T03:49:02.003Z,19.00
2017-06-23T03:51:30.748Z,19.00
2017-06-23T03:53:59.052Z,19.00
2017-06-23T03:56:27.337Z,19.00
2017-06-23T03:58:55.748Z,19.00
2017-06-23T04:01:24.819Z,19.10
2017-06-23T04:03:53.118Z,19.10
2017-06-23T04:06:21.435Z,19.10
2017-06-23T04:08:49.729Z,19.20
2017-06-23T04:11:18.795Z,19.10
2017-06-23T04:13:47.084Z,19.00
2017-06-23T04:16:15.703Z,19.10
2017-06-23T04:18:44.178Z,19.10
2017-06-23T04:21:13.299Z,19.20
2017-06-23T04:23:41.631Z,19.20
2017-06-23T04:26:10.715Z,19.30
2017-06-23T04:28:39.775Z,19.20
2017-06-23T04:31:08.075Z,19.20
2017-06-23T04:33:37.191Z,19.20
2017-06-23T04:36:05.488Z,19.20
2017-06-23T04:38:35.381Z,19.10
2017-06-23T04:41:03.686Z,19.10
2017-06-23T04:43:32.017Z,19.20
2017-06-23T04:46:00.331Z,19.20
2017-06-23T04:48:28.611Z,19.30
2017-06-23T04:50:57.055Z,19.20
2017-06-23T04:53:25.342Z,19.20
2017-06-23T04:55:53.671Z,19.20
2017-06-23T04:58:21.962Z,19.30
2017-06-23T05:00:50.261Z,19.40
2017-06-23T05:03:19.334Z,19.40
2017-06-23T05:05:48.401Z,19.40
2017-06-23T05:08:16.814Z,19.30
2017-06-23T05:10:45.111Z,19.30
2017-06-23T05:13:13.444Z,19.40
2017-06-23T05:15:42.685Z,19.50
2017-06-23T05:18:10.977Z,19.50
2017-06-23T05:20:39.269Z,19.50
2017-06-23T05:23:07.582Z,19.40
2017-06-23T05:25:35.867Z,19.40
2017-06-23T05:28:04.188Z,19.30
2017-06-23T05:30:32.467Z,19.30
2017-06-23T05:33:01.631Z,19.40
2017-06-23T05:35:29.935Z,19.50
2017-06-23T05:37:58.226Z,19.60
2017-06-23T05:40:26.538Z,19.70
2017-06-23T05:42:54.821Z,19.80
2017-06-23T05:45:23.136Z,19.80
2017-06-23T05:47:51.633Z,19.90
2017-06-23T05:50:21.010Z,20.10
2017-06-23T05:52:50.071Z,20.20
2017-06-23T05:55:18.407Z,20.10
2017-06-23T05:57:46.755Z,20.30
2017-06-23T06:00:15.288Z,20.30
2017-06-23T06:02:44.343Z,20.30
2017-06-23T06:05:12.643Z,20.30
2017-06-23T06:07:41.719Z,20.40
2017-06-23T06:10:10.784Z,20.30
2017-06-23T06:12:39.098Z,20.30
2017-06-23T06:15:07.386Z,20.40
2017-06-23T06:17:35.806Z,20.40
2017-06-23T06:20:04.100Z,20.40
2017-06-23T06:22:32.540Z,20.40
2017-06-23T06:25:00.860Z,20.50
2017-06-23T06:27:29.159Z,20.60
2017-06-23T06:29:57.479Z,20.70
2017-06-23T06:32:25.795Z,20.80
2017-06-23T06:34:54.205Z,20.80
2017-06-23T06:37:22.573Z,20.80
2017-06-23T06:39:51.085Z,20.70
2017-06-23T06:42:19.387Z,20.80
2017-06-23T06:44:47.676Z,20.70
2017-06-23T06:47:16.748Z,20.50
2017-06-23T06:49:45.802Z,20.50
2017-06-23T06:52:14.100Z,20.50
2017-06-23T06:54:43.175Z,20.70
2017-06-23T06:57:12.248Z,20.90
2017-06-23T06:59:40.672Z,20.80
2017-06-23T07:02:08.950Z,20.90
2017-06-23T07:04:37.269Z,21.00
2017-06-23T07:07:05.575Z,21.00
2017-06-23T07:09:33.882Z,21.00
2017-06-23T07:12:02.343Z,20.90
2017-06-23T07:14:30.977Z,20.90
2017-06-23T07:16:59.385Z,20.90
2017-06-23T07:19:27.683Z,21.10
2017-06-23T07:21:55.982Z,21.20
2017-06-23T07:24:25.057Z,21.30
2017-06-23T07:26:53.355Z,21.30
2017-06-23T07:29:21.683Z,21.40
2017-06-23T07:31:50.754Z,21.70
2017-06-23T07:34:19.052Z,21.70
2017-06-23T07:36:47.355Z,21.80
2017-06-23T07:39:15.655Z,21.90
2017-06-23T07:41:44.754Z,21.90
2017-06-23T07:44:13.807Z,22.00
2017-06-23T07:46:42.136Z,22.00
2017-06-23T07:49:10.480Z,22.20
2017-06-23T07:51:38.841Z,22.40
2017-06-23T07:54:07.127Z,22.40
2017-06-23T07:56:35.449Z,22.20
2017-06-23T07:59:03.947Z,22.20
2017-06-23T08:01:32.268Z,22.40
2017-06-23T08:04:01.320Z,22.80
2017-06-23T08:06:29.611Z,22.80
2017-06-23T08:08:58.914Z,22.70
2017-06-23T08:11:27.199Z,22.60
2017-06-23T08:13:55.615Z,22.80
2017-06-23T08:16:23.991Z,23.10
2017-06-23T08:18:52.303Z,23.20
2017-06-23T08:21:20.587Z,23.30
2017-06-23T08:23:49.003Z,23.30
2017-06-23T08:26:17.295Z,23.40
2017-06-23T08:28:45.591Z,23.40
2017-06-23T08:31:14.653Z,23.60
2017-06-23T08:33:42.973Z,23.50
2017-06-23T08:36:11.265Z,23.70
2017-06-23T08:38:40.472Z,23.00
2017-06-23T08:41:09.902Z,22.90
2017-06-23T08:43:38.179Z,22.80
2017-06-23T08:46:06.539Z,23.00
2017-06-23T08:48:34.818Z,23.10
2017-06-23T08:51:03.241Z,23.00
2017-06-23T08:53:31.522Z,23.10
2017-06-23T08:55:59.827Z,23.00
2017-06-23T08:58:28.125Z,23.10
2017-06-23T09:00:56.450Z,23.10
2017-06-23T09:03:24.737Z,23.20
2017-06-23T09:05:53.236Z,23.40
2017-06-23T09:08:21.522Z,23.80
2017-06-23T09:10:49.828Z,24.10
2017-06-23T09:13:18.319Z,24.30
2017-06-23T09:15:47.551Z,23.90
2017-06-23T09:18:15.867Z,23.80
2017-06-23T09:20:44.155Z,23.60
2017-06-23T09:23:12.459Z,23.50
2017-06-23T09:25:41.523Z,23.20
2017-06-23T09:28:09.847Z,23.20
2017-06-23T09:30:38.136Z,23.10
2017-06-23T09:33:06.451Z,23.00
2017-06-23T09:35:34.898Z,23.20
2017-06-23T09:38:03.431Z,23.40
2017-06-23T09:40:31.719Z,23.50
2017-06-23T09:43:00.803Z,23.20
2017-06-23T09:45:29.917Z,23.30
2017-06-23T09:47:58.203Z,23.20
2017-06-23T09:50:26.566Z,23.20
2017-06-23T09:52:54.864Z,23.20
2017-06-23T09:55:23.242Z,23.30
2017-06-23T09:57:51.522Z,23.40
2017-06-23T10:00:19.818Z,23.60
2017-06-23T10:02:48.103Z,24.00
2017-06-23T10:05:16.443Z,24.10
2017-06-23T10:07:44.855Z,24.20
2017-06-23T10:10:13.145Z,24.30
2017-06-23T10:12:41.454Z,24.40
2017-06-23T10:15:11.459Z,23.90
2017-06-23T10:17:40.531Z,22.80
2017-06-23T10:20:09.938Z,22.80
2017-06-23T10:22:38.215Z,22.60
2017-06-23T10:25:06.496Z,22.60
2017-06-23T10:27:34.796Z,22.70
2017-06-23T10:30:03.116Z,22.80
2017-06-23T10:32:31.391Z,22.90
2017-06-23T10:34:59.713Z,23.20
2017-06-23T10:37:28.755Z,23.50
2017-06-23T10:39:57.035Z,23.50
2017-06-23T10:42:25.453Z,23.90
2017-06-23T10:44:53.742Z,24.00
2017-06-23T10:47:22.047Z,24.40
2017-06-23T10:49:50.623Z,24.70
2017-06-23T10:52:18.906Z,24.60
2017-06-23T10:54:47.205Z,24.20
2017-06-23T10:57:15.478Z,23.90
2017-06-23T10:59:44.007Z,24.00
2017-06-23T11:02:12.284Z,24.20
2017-06-23T11:04:40.554Z,24.40
2017-06-23T11:07:08.920Z,24.40
2017-06-23T11:09:37.201Z,24.30
2017-06-23T11:12:06.251Z,24.50
2017-06-23T11:14:34.527Z,24.50
2017-06-23T11:17:02.817Z,24.70
2017-06-23T11:19:31.861Z,24.80
2017-06-23T11:22:00.145Z,24.80
2017-06-23T11:24:28.421Z,24.90
2017-06-23T11:26:56.791Z,24.90
2017-06-23T11:29:25.079Z,25.00
2017-06-23T11:31:53.508Z,25.00
2017-06-23T11:34:32.552Z,25.10
2017-06-23T11:37:00.840Z,24.90
2017-06-23T11:39:29.147Z,25.00
2017-06-23T11:41:57.496Z,25.30
2017-06-23T11:44:26.556Z,25.20
2017-06-23T11:46:54.833Z,25.20
2017-06-23T11:49:23.327Z,25.10
2017-06-23T11:51:51.612Z,25.20
2017-06-23T11:54:19.899Z,25.40
2017-06-23T11:56:48.187Z,25.70
2017-06-23T11:59:16.684Z,25.90
2017-06-23T12:01:45.754Z,26.10
2017-06-23T12:04:14.124Z,26.10
2017-06-23T12:06:42.388Z,25.90
2017-06-23T12:09:10.676Z,25.70
2017-06-23T12:11:39.027Z,25.50
2017-06-23T12:14:07.844Z,25.40
2017-06-23T12:16:36.121Z,25.20
2017-06-23T12:19:05.163Z,25.30
2017-06-23T12:21:33.464Z,25.30
2017-06-23T12:24:02.511Z,25.20
2017-06-23T12:26:30.803Z,25.20
2017-06-23T12:29:00.044Z,25.80
2017-06-23T12:31:28.350Z,25.80
2017-06-23T12:33:57.404Z,25.60
2017-06-23T12:36:25.695Z,25.50
2017-06-23T12:38:54.740Z,25.40
2017-06-23T12:41:23.035Z,25.40
2017-06-23T12:43:52.092Z,25.90
2017-06-23T12:46:20.379Z,25.90
2017-06-23T12:48:48.679Z,25.90
2017-06-23T12:51:17.116Z,25.80
2017-06-23T12:53:45.394Z,25.80
2017-06-23T12:56:13.721Z,25.70
2017-06-23T12:58:42.983Z,25.40
2017-06-23T13:01:11.263Z,25.40
2017-06-23T13:03:39.552Z,25.30
2017-06-23T13:06:08.016Z,25.40
2017-06-23T13:08:37.393Z,26.20
2017-06-23T13:11:05.774Z,26.20
2017-06-23T13:13:34.075Z,26.50
2017-06-23T13:16:02.353Z,26.30
2017-06-23T13:18:31.715Z,26.10
2017-06-23T13:20:59.991Z,26.40
2017-06-23T13:23:28.316Z,26.70
2017-06-23T13:25:56.581Z,26.80
2017-06-23T13:28:24.876Z,26.20
2017-06-23T13:30:53.152Z,26.20
2017-06-23T13:33:21.454Z,26.30
2017-06-23T13:35:49.727Z,26.40
2017-06-23T13:38:18.055Z,26.40
2017-06-23T13:40:47.095Z,27.30
2017-06-23T13:43:15.407Z,27.30
2017-06-23T13:45:43.858Z,27.40
2017-06-23T13:48:13.005Z,27.00
2017-06-23T13:50:41.289Z,26.90
2017-06-23T13:53:09.563Z,27.10
2017-06-23T13:55:38.645Z,26.70
2017-06-23T13:58:06.907Z,26.70
2017-06-23T14:00:35.199Z,26.80
2017-06-23T14:03:04.187Z,26.70
2017-06-23T14:05:32.536Z,26.90
2017-06-23T14:08:00.828Z,26.90
2017-06-23T14:10:29.937Z,27.20
2017-06-23T14:12:58.219Z,27.20
2017-06-23T14:15:27.274Z,27.40
2017-06-23T14:17:55.569Z,27.40
2017-06-23T14:20:23.867Z,27.50
2017-06-23T14:22:52.148Z,27.40
2017-06-23T14:25:20.428Z,27.20
2017-06-23T14:27:49.500Z,26.90
2017-06-23T14:30:17.811Z,26.90
2017-06-23T14:32:46.107Z,26.60
2017-06-23T14:35:14.388Z,26.60
2017-06-23T14:37:42.702Z,26.50
2017-06-23T14:40:10.961Z,26.60
2017-06-23T14:42:39.257Z,26.80
2017-06-23T14:45:07.666Z,26.50
2017-06-23T14:47:36.739Z,26.50
2017-06-23T14:50:05.015Z,26.60
2017-06-23T14:52:33.301Z,26.20
2017-06-23T14:55:01.575Z,26.50
2017-06-23T14:57:30.098Z,26.90
2017-06-23T14:59:58.551Z,27.10
2017-06-23T15:02:26.839Z,27.30
2017-06-23T15:04:55.158Z,27.30
2017-06-23T15:07:23.457Z,27.10
2017-06-23T15:09:51.735Z,27.40
2017-06-23T15:12:20.040Z,27.30
2017-06-23T15:14:48.316Z,27.00
2017-06-23T15:17:17.355Z,27.10
2017-06-23T15:19:45.655Z,27.10
2017-06-23T15:22:14.712Z,27.40
2017-06-23T15:24:43.008Z,27.40
2017-06-23T15:27:12.055Z,27.10
2017-06-23T15:29:40.354Z,27.10
2017-06-23T15:32:09.485Z,27.50
2017-06-23T15:34:37.777Z,27.50
2017-06-23T15:37:06.145Z,27.50
2017-06-23T15:39:34.435Z,27.30
2017-06-23T15:42:02.720Z,27.30
2017-06-23T15:44:31.078Z,27.40
2017-06-23T15:46:59.400Z,27.40
2017-06-23T15:49:27.734Z,27.30
2017-06-23T15:51:56.066Z,27.30
2017-06-23T15:54:24.346Z,27.00
2017-06-23T15:56:52.657Z,26.70
2017-06-23T15:59:22.178Z,27.20
2017-06-23T16:01:50.477Z,27.20
2017-06-23T16:04:18.943Z,27.50
2017-06-23T16:06:47.247Z,27.70
2017-06-23T16:09:15.546Z,27.60
2017-06-23T16:11:43.855Z,27.80
2017-06-23T16:14:12.896Z,27.50
2017-06-23T16:16:41.212Z,27.50
2017-06-23T16:19:09.500Z,27.10
2017-06-23T16:21:37.815Z,26.90
2017-06-23T16:24:06.191Z,26.60
2017-06-23T16:26:34.815Z,26.20
2017-06-23T16:29:03.231Z,26.40
2017-06-23T16:31:31.787Z,26.50
2017-06-23T16:34:00.131Z,26.50
2017-06-23T16:36:28.419Z,26.40
2017-06-23T16:38:56.839Z,26.20
2017-06-23T16:41:25.123Z,26.00
2017-06-23T16:43:53.505Z,25.90
2017-06-23T16:46:21.855Z,26.10
2017-06-23T16:48:50.943Z,26.40
2017-06-23T16:51:19.257Z,26.40
2017-06-23T16:53:47.599Z,26.30
2017-06-23T16:56:15.928Z,26.30
2017-06-23T16:58:44.984Z,26.50
2017-06-23T17:01:13.274Z,26.50
2017-06-23T17:03:41.532Z,26.50
2017-06-23T17:06:10.605Z,26.00
2017-06-23T17:08:38.888Z,26.00
2017-06-23T17:11:08.263Z,25.60
2017-06-23T17:13:36.814Z,25.60
2017-06-23T17:16:05.111Z,25.60
2017-06-23T17:18:33.584Z,25.60
2017-06-23T17:21:01.896Z,25.60
2017-06-23T17:23:30.276Z,25.50
2017-06-23T17:25:58.584Z,25.40
2017-06-23T17:28:26.947Z,25.50
2017-06-23T17:30:55.270Z,25.50
2017-06-23T17:33:23.539Z,25.70
2017-06-23T17:35:51.831Z,25.80
2017-06-23T17:38:20.111Z,26.00
2017-06-23T17:40:48.463Z,26.20
2017-06-23T17:43:16.739Z,26.30
2017-06-23T17:45:45.922Z,26.30
2017-06-23T17:48:14.189Z,26.20
2017-06-23T17:50:43.103Z,26.20
2017-06-23T17:53:11.385Z,26.40
2017-06-23T17:55:40.220Z,26.50
2017-06-23T17:58:08.510Z,26.50
2017-06-23T18:00:36.793Z,26.50
2017-06-23T18:03:05.085Z,26.60
2017-06-23T18:05:33.512Z,26.60
2017-06-23T18:08:01.886Z,26.80
2017-06-23T18:10:30.164Z,27.00
2017-06-23T18:12:58.487Z,26.90
2017-06-23T18:15:26.841Z,27.10
2017-06-23T18:17:55.908Z,27.00
2017-06-23T18:20:24.192Z,27.00
2017-06-23T18:22:52.530Z,26.70
2017-06-23T18:25:20.915Z,26.30
2017-06-23T18:27:49.247Z,26.10
2017-06-23T18:30:17.617Z,25.80
2017-06-23T18:32:45.915Z,25.90
2017-06-23T18:35:14.279Z,26.10
2017-06-23T18:37:42.626Z,26.20
2017-06-23T18:40:10.951Z,26.20
2017-06-23T18:42:39.211Z,26.10
2017-06-23T18:45:07.591Z,26.10
2017-06-23T18:47:35.883Z,26.00
2017-06-23T18:50:04.198Z,25.90
2017-06-23T18:52:32.483Z,25.80
2017-06-23T18:55:01.526Z,25.20
2017-06-23T18:57:29.834Z,25.20
2017-06-23T18:59:58.161Z,25.00
2017-06-23T19:02:26.467Z,24.70
2017-06-23T19:04:54.916Z,24.50
2017-06-23T19:07:24.069Z,24.20
2017-06-23T19:09:52.415Z,24.20
2017-06-23T19:12:20.708Z,24.20
2017-06-23T19:14:49.706Z,24.10
2017-06-23T19:17:17.977Z,24.00
2017-06-23T19:19:47.048Z,23.60
2017-06-23T19:22:15.527Z,23.60
2017-06-23T19:24:43.916Z,23.50
2017-06-23T19:27:12.320Z,23.40
2017-06-23T19:29:40.608Z,23.40
2017-06-23T19:32:09.691Z,23.20
2017-06-23T19:34:38.957Z,23.10
2017-06-23T19:37:08.039Z,23.10
2017-06-23T19:39:36.554Z,23.10
2017-06-23T19:42:04.887Z,22.90
2017-06-23T19:44:33.189Z,22.80
2017-06-23T19:47:01.474Z,22.70
2017-06-23T19:49:29.774Z,22.60
2017-06-23T19:51:58.115Z,22.50
2017-06-23T19:54:26.461Z,22.50
2017-06-23T19:56:55.687Z,22.30
2017-06-23T19:59:24.190Z,22.30
2017-06-23T20:01:52.475Z,22.30
2017-06-23T20:04:20.927Z,22.20
2017-06-23T20:06:49.229Z,22.20
2017-06-23T20:09:18.291Z,22.00
2017-06-23T20:11:46.606Z,22.00
2017-06-23T20:14:14.899Z,22.00
2017-06-23T20:16:43.204Z,21.90
2017-06-23T20:19:11.579Z,21.90
2017-06-23T20:21:39.992Z,21.80
2017-06-23T20:24:08.459Z,21.80
2017-06-23T20:26:36.751Z,21.70
2017-06-23T20:29:05.807Z,21.70
2017-06-23T20:31:34.099Z,21.60
2017-06-23T20:34:02.491Z,21.60
2017-06-23T20:36:32.182Z,21.50
2017-06-23T20:39:00.773Z,21.50
2017-06-23T20:41:30.429Z,21.40
2017-06-23T20:43:58.824Z,21.40
2017-06-23T20:46:27.261Z,21.30
2017-06-23T20:48:55.556Z,21.30
2017-06-23T20:51:23.952Z,21.20
2017-06-23T20:53:52.267Z,21.20
2017-06-23T20:56:20.826Z,21.10
2017-06-23T20:58:49.299Z,21.10
2017-06-23T21:01:18.317Z,21.00
2017-06-23T21:03:46.616Z,21.00
2017-06-23T21:06:15.683Z,20.90
2017-06-23T21:08:44.011Z,20.90
2017-06-23T21:11:12.289Z,20.90
2017-06-23T21:13:40.752Z,20.80
2017-06-23T21:16:09.135Z,20.70
2017-06-23T21:18:37.570Z,20.70
2017-06-23T21:21:05.848Z,20.70
2017-06-23T21:23:35.006Z,20.60
2017-06-23T21:26:03.294Z,20.60
2017-06-23T21:28:31.581Z,20.50
2017-06-23T21:30:59.933Z,20.40
2017-06-23T21:33:28.319Z,20.40
2017-06-23T21:35:56.595Z,20.30
2017-06-23T21:38:24.904Z,20.30
2017-06-23T21:41:16.043Z,20.30
2017-06-23T21:43:44.328Z,20.20
2017-06-23T21:46:13.377Z,20.10
2017-06-23T21:48:42.536Z,20.00
2017-06-23T21:51:10.808Z,20.00
2017-06-23T21:53:39.109Z,20.00
2017-06-23T21:56:07.392Z,19.90
2017-06-23T21:58:35.738Z,19.80
2017-06-23T22:01:04.148Z,19.70
2017-06-23T22:03:32.455Z,19.70
2017-06-23T22:06:01.187Z,19.70
2017-06-23T22:08:29.998Z,19.70
2017-06-23T22:10:58.266Z,19.60
2017-06-23T22:13:26.559Z,19.50
2017-06-23T22:15:54.863Z,19.50
2017-06-23T22:18:23.527Z,19.40
2017-06-23T22:20:51.983Z,19.30
2017-06-23T22:23:21.060Z,19.30
2017-06-23T22:25:50.327Z,19.20
2017-06-23T22:28:18.671Z,19.20
2017-06-23T22:30:46.947Z,19.10
2017-06-23T22:33:15.375Z,19.10
2017-06-23T22:35:43.933Z,19.00
2017-06-23T22:38:12.967Z,18.90
2017-06-23T22:40:41.252Z,18.90
2017-06-23T22:43:10.303Z,18.90
2017-06-23T22:45:38.583Z,18.80
2017-06-23T22:48:06.985Z,18.80
2017-06-23T22:50:35.415Z,18.80
2017-06-23T22:53:03.692Z,18.80
2017-06-23T22:55:31.975Z,18.80
2017-06-23T22:58:00.285Z,18.70
2017-06-23T23:00:28.806Z,18.60
2017-06-23T23:02:57.488Z,18.50
2017-06-23T23:05:26.015Z,18.50
2017-06-23T23:07:55.111Z,18.40
2017-06-23T23:10:23.387Z,18.40
2017-06-23T23:12:52.516Z,18.40
2017-06-23T23:15:20.803Z,18.30
2017-06-23T23:17:49.595Z,18.30
2017-06-23T23:20:18.011Z,18.20
2017-06-23T23:22:46.588Z,18.00
2017-06-23T23:25:15.670Z,17.90
2017-06-23T23:27:43.946Z,17.90
2017-06-23T23:30:12.365Z,17.90
2017-06-23T23:32:40.639Z,17.80
2017-06-23T23:35:08.921Z,17.80
2017-06-23T23:37:37.211Z,17.70
2017-06-23T23:40:05.491Z,17.60
2017-06-23T23:42:34.337Z,17.60
2017-06-23T23:45:03.371Z,17.60
2017-06-23T23:47:31.657Z,17.50
2017-06-23T23:49:59.987Z,17.50
2017-06-23T23:52:28.263Z,17.50
2017-06-23T23:54:56.734Z,17.30
2017-06-23T23:57:25.076Z,17.30
2017-06-23T23:59:53.351Z,17.20
